createdAt,value
2022-08-16T00:00:04.304Z,2.30
2022-08-16T00:00:59.241Z,2.50
2022-08-16T00:01:59.878Z,2.80
2022-08-16T00:02:59.200Z,2.80
2022-08-16T00:03:59.181Z,2.90
2022-08-16T00:04:59.625Z,2.90
2022-08-16T00:05:59.172Z,3.50
2022-08-16T00:06:59.195Z,3.40
2022-08-16T00:07:59.139Z,3.10
2022-08-16T00:08:59.120Z,3.10
2022-08-16T00:09:59.102Z,3.00
2022-08-16T00:10:59.077Z,3.00
2022-08-16T00:11:59.098Z,3.00
2022-08-16T00:12:59.082Z,3.00
2022-08-16T00:13:59.053Z,2.90
2022-08-16T00:14:59.198Z,3.10
2022-08-16T00:15:59.015Z,3.20
2022-08-16T00:17:16.167Z,2.90
2022-08-16T00:17:59.036Z,2.80
2022-08-16T00:18:58.967Z,3.30
2022-08-16T00:19:58.974Z,3.00
2022-08-16T00:20:58.952Z,2.90
2022-08-16T00:22:03.009Z,2.80
2022-08-16T00:22:58.961Z,2.70
2022-08-16T00:23:58.939Z,2.70
2022-08-16T00:24:58.925Z,2.80
2022-08-16T00:26:35.976Z,2.90
2022-08-16T00:26:58.891Z,2.90
2022-08-16T00:27:58.867Z,3.00
2022-08-16T00:28:59.209Z,2.80
2022-08-16T00:30:00.601Z,2.90
2022-08-16T00:30:59.080Z,2.80
2022-08-16T00:32:05.579Z,2.90
2022-08-16T00:32:58.787Z,3.20
2022-08-16T00:33:58.795Z,2.90
2022-08-16T00:35:00.452Z,3.00
2022-08-16T00:35:58.756Z,3.10
2022-08-16T00:36:58.735Z,2.70
2022-08-16T00:37:59.552Z,3.00
2022-08-16T00:38:58.720Z,2.90
2022-08-16T00:39:59.048Z,3.00
2022-08-16T00:40:58.731Z,3.00
2022-08-16T00:41:58.671Z,3.10
2022-08-16T00:42:58.667Z,2.90
2022-08-16T00:43:58.646Z,2.80
2022-08-16T00:44:58.665Z,2.90
2022-08-16T00:46:00.785Z,3.00
2022-08-16T00:47:06.001Z,3.10
2022-08-16T00:47:58.596Z,2.80
2022-08-16T00:48:58.579Z,3.10
2022-08-16T00:49:58.566Z,3.10
2022-08-16T00:50:58.600Z,2.80
2022-08-16T00:51:58.560Z,2.80
2022-08-16T00:52:59.156Z,3.00
2022-08-16T00:53:58.550Z,3.30
2022-08-16T00:54:58.499Z,3.20
2022-08-16T00:55:58.501Z,2.90
2022-08-16T00:56:59.836Z,3.30
2022-08-16T00:58:00.734Z,3.20
2022-08-16T00:58:58.434Z,3.10
2022-08-16T00:59:59.057Z,2.90
2022-08-16T01:00:58.433Z,3.00
2022-08-16T01:01:58.422Z,2.80
2022-08-16T01:02:58.382Z,3.10
2022-08-16T01:03:58.374Z,3.40
2022-08-16T01:05:10.402Z,2.90
2022-08-16T01:05:58.407Z,3.10
2022-08-16T01:07:01.902Z,3.00
2022-08-16T01:07:59.610Z,3.30
2022-08-16T01:09:00.059Z,3.20
2022-08-16T01:09:58.308Z,3.00
2022-08-16T01:10:59.877Z,3.10
2022-08-16T01:11:58.275Z,3.00
2022-08-16T01:12:58.287Z,3.40
2022-08-16T01:13:58.240Z,3.30
2022-08-16T01:14:58.224Z,3.00
2022-08-16T01:15:58.233Z,3.10
2022-08-16T01:16:58.192Z,3.30
2022-08-16T01:17:58.225Z,3.70
2022-08-16T01:18:58.186Z,3.50
2022-08-16T01:19:58.185Z,3.10
2022-08-16T01:20:58.141Z,3.50
2022-08-16T01:21:58.147Z,3.20
2022-08-16T01:22:59.124Z,3.20
2022-08-16T01:24:01.543Z,3.10
2022-08-16T01:24:58.099Z,2.80
2022-08-16T01:26:00.257Z,2.70
2022-08-16T01:26:58.069Z,2.80
2022-08-16T01:27:58.096Z,2.80
2022-08-16T01:28:58.076Z,2.80
2022-08-16T01:29:59.487Z,2.60
2022-08-16T01:30:58.075Z,2.80
2022-08-16T01:31:58.000Z,3.20
2022-08-16T01:33:01.810Z,3.30
2022-08-16T01:33:57.980Z,3.70
2022-08-16T01:34:58.013Z,2.80
2022-08-16T01:35:57.948Z,3.50
2022-08-16T01:36:58.440Z,3.80
2022-08-16T01:37:57.936Z,3.50
2022-08-16T01:38:57.914Z,3.80
2022-08-16T01:39:57.985Z,3.70
2022-08-16T01:40:57.891Z,3.90
2022-08-16T01:41:57.861Z,3.70
2022-08-16T01:42:57.880Z,3.50
2022-08-16T01:44:01.453Z,3.30
2022-08-16T01:44:57.831Z,3.70
2022-08-16T01:45:58.319Z,3.90
2022-08-16T01:46:57.798Z,3.60
2022-08-16T01:47:57.794Z,3.70
2022-08-16T01:48:57.768Z,3.80
2022-08-16T01:50:42.576Z,3.50
2022-08-16T01:51:17.063Z,3.90
2022-08-16T01:51:57.747Z,4.00
2022-08-16T01:52:57.737Z,3.70
2022-08-16T01:53:57.782Z,4.20
2022-08-16T01:54:57.696Z,3.90
2022-08-16T01:55:57.700Z,3.70
2022-08-16T01:56:57.686Z,4.10
2022-08-16T01:57:57.653Z,3.60
2022-08-16T01:58:57.766Z,3.80
2022-08-16T01:59:57.642Z,3.80
2022-08-16T02:00:57.646Z,4.00
2022-08-16T02:02:00.002Z,3.50
2022-08-16T02:02:57.586Z,3.80
2022-08-16T02:03:58.191Z,3.70
2022-08-16T02:04:57.699Z,3.50
2022-08-16T02:05:57.545Z,3.50
2022-08-16T02:06:57.607Z,3.50
2022-08-16T02:07:57.510Z,3.70
2022-08-16T02:08:57.499Z,3.80
2022-08-16T02:09:59.456Z,3.60
2022-08-16T02:10:57.502Z,3.40
2022-08-16T02:11:57.490Z,3.60
2022-08-16T02:13:00.593Z,3.60
2022-08-16T02:13:57.451Z,3.80
2022-08-16T02:14:57.599Z,3.50
2022-08-16T02:15:57.415Z,3.40
2022-08-16T02:16:57.391Z,3.20
2022-08-16T02:17:57.430Z,3.00
2022-08-16T02:18:57.391Z,3.00
2022-08-16T02:20:00.159Z,2.80
2022-08-16T02:20:57.355Z,3.10
2022-08-16T02:22:08.281Z,3.30
2022-08-16T02:22:57.324Z,3.10
2022-08-16T02:23:57.332Z,3.30
2022-08-16T02:24:57.318Z,3.40
2022-08-16T02:25:57.330Z,3.50
2022-08-16T02:26:57.290Z,3.30
2022-08-16T02:27:57.263Z,3.60
2022-08-16T02:28:57.241Z,3.80
2022-08-16T02:30:05.693Z,3.20
2022-08-16T02:30:57.228Z,3.20
2022-08-16T02:32:03.573Z,3.60
2022-08-16T02:32:57.199Z,3.30
2022-08-16T02:33:57.173Z,3.40
2022-08-16T02:34:57.192Z,3.40
2022-08-16T02:35:58.547Z,3.40
2022-08-16T02:36:57.135Z,3.70
2022-08-16T02:37:57.124Z,3.60
2022-08-16T02:38:57.112Z,4.00
2022-08-16T02:39:57.144Z,3.80
2022-08-16T02:40:57.099Z,4.00
2022-08-16T02:41:57.073Z,3.50
2022-08-16T02:42:57.070Z,3.90
2022-08-16T02:43:57.098Z,3.50
2022-08-16T02:44:57.023Z,3.60
2022-08-16T02:45:57.033Z,3.60
2022-08-16T02:46:57.037Z,4.00
2022-08-16T02:48:01.586Z,3.70
2022-08-16T02:48:56.978Z,3.60
2022-08-16T02:49:58.962Z,3.70
2022-08-16T02:51:10.233Z,3.80
2022-08-16T02:51:56.940Z,4.20
2022-08-16T02:52:56.952Z,4.20
2022-08-16T02:53:56.908Z,4.50
2022-08-16T02:54:56.886Z,4.40
2022-08-16T02:55:56.892Z,4.30
2022-08-16T02:56:56.856Z,3.80
2022-08-16T02:57:56.848Z,4.10
2022-08-16T02:58:56.870Z,4.50
2022-08-16T02:59:56.830Z,4.70
2022-08-16T03:00:57.294Z,4.40
2022-08-16T03:01:56.835Z,4.60
2022-08-16T03:02:56.822Z,4.50
2022-08-16T03:04:39.450Z,4.30
2022-08-16T03:04:56.755Z,4.60
2022-08-16T03:05:56.737Z,4.80
2022-08-16T03:06:57.346Z,4.40
2022-08-16T03:07:56.753Z,4.60
2022-08-16T03:08:56.697Z,4.50
2022-08-16T03:09:56.697Z,4.50
2022-08-16T03:10:59.167Z,4.40
2022-08-16T03:11:56.674Z,4.20
2022-08-16T03:12:56.891Z,4.60
2022-08-16T03:13:56.929Z,4.60
2022-08-16T03:14:56.658Z,4.70
2022-08-16T03:15:56.602Z,4.90
2022-08-16T03:16:59.052Z,4.50
2022-08-16T03:17:56.594Z,4.10
2022-08-16T03:18:56.580Z,4.60
2022-08-16T03:20:00.180Z,4.30
2022-08-16T03:20:56.555Z,4.70
2022-08-16T03:21:56.534Z,4.80
2022-08-16T03:22:56.647Z,4.40
2022-08-16T03:23:56.507Z,4.50
2022-08-16T03:24:57.618Z,4.60
2022-08-16T03:25:56.469Z,4.80
2022-08-16T03:26:58.100Z,5.20
2022-08-16T03:27:56.456Z,4.30
2022-08-16T03:28:56.445Z,4.80
2022-08-16T03:29:56.447Z,4.90
2022-08-16T03:30:56.430Z,4.70
2022-08-16T03:31:56.389Z,4.20
2022-08-16T03:32:56.386Z,4.40
2022-08-16T03:33:56.382Z,4.50
2022-08-16T03:34:56.366Z,4.20
2022-08-16T03:35:57.225Z,5.00
2022-08-16T03:36:56.319Z,4.40
2022-08-16T03:38:02.389Z,4.70
2022-08-16T03:38:56.306Z,4.50
2022-08-16T03:40:02.701Z,5.00
2022-08-16T03:40:56.352Z,4.40
2022-08-16T03:41:59.587Z,4.80
2022-08-16T03:43:00.517Z,4.70
2022-08-16T03:43:56.260Z,4.50
2022-08-16T03:45:03.566Z,5.00
2022-08-16T03:45:56.231Z,4.60
2022-08-16T03:46:56.194Z,4.70
2022-08-16T03:47:58.313Z,4.50
2022-08-16T03:48:56.189Z,4.90
2022-08-16T03:49:56.177Z,4.90
2022-08-16T03:50:59.862Z,4.80
2022-08-16T03:51:56.142Z,4.70
2022-08-16T03:53:01.287Z,4.80
2022-08-16T03:53:57.781Z,4.50
2022-08-16T03:54:58.074Z,4.70
2022-08-16T03:55:56.072Z,4.70
2022-08-16T03:56:57.863Z,4.70
2022-08-16T03:57:56.038Z,4.60
2022-08-16T03:58:56.043Z,4.50
2022-08-16T03:59:56.049Z,4.50
2022-08-16T04:00:56.914Z,4.00
2022-08-16T04:01:55.981Z,4.60
2022-08-16T04:02:56.016Z,4.70
2022-08-16T04:03:55.982Z,4.70
2022-08-16T04:04:56.051Z,4.20
2022-08-16T04:05:55.958Z,4.50
2022-08-16T04:06:56.065Z,4.60
2022-08-16T04:07:55.931Z,4.50
2022-08-16T04:08:55.910Z,4.90
2022-08-16T04:09:55.886Z,4.50
2022-08-16T04:10:55.890Z,4.30
2022-08-16T04:11:55.861Z,4.60
2022-08-16T04:13:00.601Z,4.70
2022-08-16T04:14:01.461Z,4.50
2022-08-16T04:14:55.860Z,4.10
2022-08-16T04:15:55.828Z,4.50
2022-08-16T04:16:55.793Z,4.30
2022-08-16T04:17:55.799Z,4.20
2022-08-16T04:19:01.242Z,4.40
2022-08-16T04:19:58.091Z,4.60
2022-08-16T04:20:56.447Z,4.60
2022-08-16T04:21:56.689Z,4.20
2022-08-16T04:22:55.734Z,4.40
2022-08-16T04:23:55.701Z,4.50
2022-08-16T04:24:55.683Z,4.50
2022-08-16T04:25:55.710Z,4.50
2022-08-16T04:26:55.672Z,4.40
2022-08-16T04:27:56.099Z,4.20
2022-08-16T04:29:15.207Z,4.10
2022-08-16T04:30:03.281Z,4.30
2022-08-16T04:30:55.615Z,4.40
2022-08-16T04:31:57.993Z,4.60
2022-08-16T04:32:55.801Z,4.40
2022-08-16T04:33:55.581Z,4.40
2022-08-16T04:34:55.549Z,4.10
2022-08-16T04:35:55.592Z,4.10
2022-08-16T04:36:56.748Z,4.10
2022-08-16T04:37:55.505Z,4.50
2022-08-16T04:38:55.515Z,4.50
2022-08-16T04:39:57.258Z,4.60
2022-08-16T04:40:55.602Z,4.60
2022-08-16T04:41:56.846Z,4.20
2022-08-16T04:42:55.451Z,5.70
2022-08-16T04:43:55.522Z,6.10
2022-08-16T04:44:56.025Z,5.90
2022-08-16T04:46:00.890Z,5.50
2022-08-16T04:47:01.420Z,5.80
2022-08-16T04:47:56.129Z,5.80
2022-08-16T04:48:55.378Z,5.60
2022-08-16T04:49:55.368Z,5.10
2022-08-16T04:50:55.341Z,5.00
2022-08-16T04:51:55.541Z,5.30
2022-08-16T04:52:55.621Z,4.60
2022-08-16T04:53:55.340Z,4.70
2022-08-16T04:54:55.288Z,4.20
2022-08-16T04:55:55.255Z,5.20
2022-08-16T04:56:55.274Z,4.20
2022-08-16T04:57:55.238Z,4.60
2022-08-16T04:58:57.821Z,4.60
2022-08-16T04:59:55.240Z,4.70
2022-08-16T05:00:55.194Z,4.20
2022-08-16T05:01:58.263Z,4.90
2022-08-16T05:02:56.171Z,4.30
2022-08-16T05:04:00.963Z,4.60
2022-08-16T05:04:55.169Z,4.60
2022-08-16T05:05:58.903Z,4.60
2022-08-16T05:06:55.118Z,4.60
2022-08-16T05:07:59.403Z,4.80
2022-08-16T05:08:56.402Z,4.80
2022-08-16T05:09:55.067Z,4.60
2022-08-16T05:10:58.955Z,4.50
2022-08-16T05:11:57.563Z,4.50
2022-08-16T05:12:55.041Z,4.40
2022-08-16T05:13:55.082Z,4.80
2022-08-16T05:15:02.145Z,4.50
2022-08-16T05:15:55.007Z,4.60
2022-08-16T05:16:54.981Z,4.40
2022-08-16T05:17:58.739Z,4.20
2022-08-16T05:18:56.864Z,4.50
2022-08-16T05:19:57.407Z,4.00
2022-08-16T05:21:09.386Z,4.30
2022-08-16T05:21:54.910Z,4.20
2022-08-16T05:22:54.903Z,4.40
2022-08-16T05:23:58.471Z,4.20
2022-08-16T05:24:55.647Z,4.40
2022-08-16T05:25:54.863Z,4.60
2022-08-16T05:26:54.857Z,4.20
2022-08-16T05:27:54.825Z,4.50
2022-08-16T05:28:55.233Z,4.40
2022-08-16T05:30:00.729Z,4.10
2022-08-16T05:30:54.825Z,4.30
2022-08-16T05:31:54.766Z,4.70
2022-08-16T05:32:54.763Z,4.30
2022-08-16T05:33:54.757Z,4.50
2022-08-16T05:34:54.750Z,4.50
2022-08-16T05:35:55.972Z,4.70
2022-08-16T05:36:54.742Z,4.30
2022-08-16T05:37:54.712Z,5.00
2022-08-16T05:38:54.677Z,4.60
2022-08-16T05:39:55.204Z,4.30
2022-08-16T05:40:59.585Z,4.50
2022-08-16T05:41:54.663Z,4.50
2022-08-16T05:42:56.130Z,5.10
2022-08-16T05:43:59.196Z,4.70
2022-08-16T05:44:54.650Z,5.00
2022-08-16T05:45:54.618Z,4.60
2022-08-16T05:46:54.920Z,4.30
2022-08-16T05:48:00.398Z,4.70
2022-08-16T05:48:54.883Z,4.40
2022-08-16T05:49:54.560Z,5.10
2022-08-16T05:50:54.520Z,4.70
2022-08-16T05:51:54.511Z,4.30
2022-08-16T05:52:54.515Z,4.90
2022-08-16T05:53:54.481Z,4.40
2022-08-16T05:55:00.897Z,4.70
2022-08-16T05:55:54.455Z,4.90
2022-08-16T05:56:54.505Z,4.50
2022-08-16T05:57:54.436Z,5.40
2022-08-16T05:58:54.433Z,4.90
2022-08-16T05:59:59.746Z,4.30
2022-08-16T06:00:54.408Z,4.90
2022-08-16T06:01:54.499Z,5.00
2022-08-16T06:02:54.358Z,4.70
2022-08-16T06:03:54.338Z,4.50
2022-08-16T06:04:54.473Z,4.90
2022-08-16T06:05:54.718Z,4.30
2022-08-16T06:06:56.011Z,4.80
2022-08-16T06:07:59.034Z,5.40
2022-08-16T06:08:54.295Z,5.30
2022-08-16T06:09:54.314Z,4.60
2022-08-16T06:11:02.679Z,5.30
2022-08-16T06:11:54.251Z,5.70
2022-08-16T06:12:55.991Z,5.30
2022-08-16T06:13:55.341Z,4.90
2022-08-16T06:14:54.205Z,5.50
2022-08-16T06:15:54.213Z,5.80
2022-08-16T06:16:54.183Z,5.90
2022-08-16T06:17:54.173Z,5.80
2022-08-16T06:18:54.154Z,5.50
2022-08-16T06:19:54.187Z,5.30
2022-08-16T06:20:55.595Z,5.20
2022-08-16T06:21:55.148Z,5.70
2022-08-16T06:22:59.063Z,6.20
2022-08-16T06:23:54.623Z,5.70
2022-08-16T06:24:55.786Z,5.60
2022-08-16T06:25:54.053Z,5.70
2022-08-16T06:26:57.726Z,5.40
2022-08-16T06:27:58.173Z,4.90
2022-08-16T06:28:54.011Z,5.30
2022-08-16T06:29:54.023Z,5.10
2022-08-16T06:30:53.991Z,4.80
2022-08-16T06:31:53.966Z,5.00
2022-08-16T06:32:54.087Z,5.40
2022-08-16T06:33:53.959Z,5.60
2022-08-16T06:34:57.218Z,5.70
2022-08-16T06:35:55.097Z,6.10
2022-08-16T06:36:59.607Z,5.90
2022-08-16T06:37:53.892Z,5.50
2022-08-16T06:38:55.805Z,5.60
2022-08-16T06:39:53.912Z,4.90
2022-08-16T06:40:53.884Z,5.60
2022-08-16T06:41:53.833Z,5.70
2022-08-16T06:42:57.263Z,4.50
2022-08-16T06:43:53.931Z,4.80
2022-08-16T06:44:53.817Z,5.50
2022-08-16T06:45:53.812Z,6.00
2022-08-16T06:46:53.800Z,5.30
2022-08-16T06:47:56.541Z,5.50
2022-08-16T06:48:53.787Z,5.20
2022-08-16T06:49:54.180Z,5.00
2022-08-16T06:50:53.739Z,5.10
2022-08-16T06:51:53.709Z,5.30
2022-08-16T06:52:59.936Z,5.10
2022-08-16T06:53:53.703Z,5.50
2022-08-16T06:54:53.673Z,4.90
2022-08-16T06:55:54.004Z,4.90
2022-08-16T06:56:54.301Z,5.30
2022-08-16T06:57:53.620Z,5.30
2022-08-16T06:58:53.668Z,4.80
2022-08-16T06:59:58.301Z,5.20
2022-08-16T07:00:53.640Z,4.70
2022-08-16T07:01:55.107Z,4.60
2022-08-16T07:02:54.018Z,5.10
2022-08-16T07:03:55.314Z,4.90
2022-08-16T07:04:53.566Z,5.60
2022-08-16T07:05:53.922Z,5.00
2022-08-16T07:06:53.505Z,5.00
2022-08-16T07:07:54.055Z,5.00
2022-08-16T07:08:53.553Z,5.40
2022-08-16T07:09:53.486Z,5.50
2022-08-16T07:10:53.457Z,5.20
2022-08-16T07:11:53.469Z,4.90
2022-08-16T07:13:03.150Z,5.30
2022-08-16T07:14:00.476Z,5.40
2022-08-16T07:14:56.365Z,5.40
2022-08-16T07:15:53.494Z,5.50
2022-08-16T07:16:53.366Z,5.30
2022-08-16T07:17:53.385Z,5.30
2022-08-16T07:19:01.290Z,5.10
2022-08-16T07:20:30.124Z,5.00
2022-08-16T07:20:53.353Z,5.00
2022-08-16T07:21:59.500Z,5.10
2022-08-16T07:22:59.342Z,5.00
2022-08-16T07:23:56.822Z,4.60
2022-08-16T07:24:53.271Z,4.80
2022-08-16T07:25:53.276Z,4.50
2022-08-16T07:26:53.272Z,4.60
2022-08-16T07:27:53.220Z,3.80
2022-08-16T07:28:53.201Z,4.30
2022-08-16T07:29:55.457Z,4.30
2022-08-16T07:30:53.234Z,4.90
2022-08-16T07:31:53.866Z,4.40
2022-08-16T07:32:53.172Z,4.40
2022-08-16T07:33:54.961Z,4.60
2022-08-16T07:34:53.118Z,4.50
2022-08-16T07:35:53.133Z,4.20
2022-08-16T07:36:58.127Z,4.30
2022-08-16T07:37:53.095Z,4.70
2022-08-16T07:38:53.076Z,4.40
2022-08-16T07:39:54.671Z,4.30
2022-08-16T07:41:01.528Z,4.00
2022-08-16T07:41:53.157Z,3.80
2022-08-16T07:42:53.041Z,4.20
2022-08-16T07:43:53.026Z,4.10
2022-08-16T07:44:53.002Z,4.10
2022-08-16T07:45:53.467Z,4.10
2022-08-16T07:46:55.655Z,4.20
2022-08-16T07:47:52.951Z,4.20
2022-08-16T07:48:52.954Z,4.40
2022-08-16T07:49:57.913Z,4.00
2022-08-16T07:50:56.423Z,3.90
2022-08-16T07:51:54.337Z,4.10
2022-08-16T07:52:53.012Z,3.90
2022-08-16T07:54:02.343Z,3.40
2022-08-16T07:54:53.448Z,4.00
2022-08-16T07:55:52.896Z,3.90
2022-08-16T07:56:53.186Z,4.10
2022-08-16T07:58:00.652Z,4.00
2022-08-16T07:58:55.421Z,4.10
2022-08-16T07:59:52.799Z,4.50
2022-08-16T08:00:52.843Z,3.80
2022-08-16T08:01:53.093Z,3.80
2022-08-16T08:02:52.930Z,3.50
2022-08-16T08:03:52.759Z,4.00
2022-08-16T08:04:52.737Z,3.80
2022-08-16T08:05:52.709Z,4.50
2022-08-16T08:06:52.768Z,3.70
2022-08-16T08:07:52.770Z,4.20
2022-08-16T08:08:57.337Z,4.10
2022-08-16T08:09:52.673Z,4.20
2022-08-16T08:10:52.650Z,3.40
2022-08-16T08:11:59.497Z,3.60
2022-08-16T08:12:52.666Z,3.50
2022-08-16T08:13:52.605Z,3.60
2022-08-16T08:14:52.606Z,3.70
2022-08-16T08:15:53.369Z,3.60
2022-08-16T08:16:52.595Z,3.60
2022-08-16T08:17:52.598Z,3.60
2022-08-16T08:18:56.260Z,3.70
2022-08-16T08:19:53.011Z,3.80
2022-08-16T08:20:59.259Z,3.70
2022-08-16T08:21:58.872Z,3.40
2022-08-16T08:22:52.523Z,3.30
2022-08-16T08:23:52.509Z,4.00
2022-08-16T08:24:53.351Z,3.40
2022-08-16T08:25:53.736Z,3.60
2022-08-16T08:26:52.464Z,3.90
2022-08-16T08:27:57.504Z,3.70
2022-08-16T08:28:52.432Z,3.60
2022-08-16T08:30:49.945Z,3.70
2022-08-16T08:31:02.457Z,3.70
2022-08-16T08:31:52.390Z,3.80
2022-08-16T08:32:59.854Z,3.40
2022-08-16T08:33:52.359Z,3.70
2022-08-16T08:34:52.364Z,3.70
2022-08-16T08:35:52.328Z,3.80
2022-08-16T08:36:54.153Z,3.80
2022-08-16T08:37:55.280Z,4.00
2022-08-16T08:38:52.290Z,3.90
2022-08-16T08:39:55.168Z,3.70
2022-08-16T08:40:52.259Z,3.70
2022-08-16T08:41:52.245Z,4.00
2022-08-16T08:42:58.005Z,3.50
2022-08-16T08:43:52.291Z,3.80
2022-08-16T08:44:52.230Z,3.90
2022-08-16T08:45:53.001Z,3.90
2022-08-16T08:47:00.703Z,3.70
2022-08-16T08:47:58.476Z,3.80
2022-08-16T08:48:59.379Z,3.80
2022-08-16T08:49:55.573Z,3.80
2022-08-16T08:50:52.142Z,3.80
2022-08-16T08:51:52.115Z,4.20
2022-08-16T08:52:52.910Z,4.00
2022-08-16T08:53:57.547Z,3.30
2022-08-16T08:54:52.091Z,4.20
2022-08-16T08:55:58.869Z,4.10
2022-08-16T08:56:52.335Z,3.80
2022-08-16T08:57:52.086Z,4.30
2022-08-16T08:58:53.924Z,3.90
2022-08-16T08:59:52.010Z,3.70
2022-08-16T09:00:52.084Z,4.00
2022-08-16T09:01:57.190Z,4.00
2022-08-16T09:02:52.531Z,4.20
2022-08-16T09:03:52.009Z,3.40
2022-08-16T09:04:52.033Z,4.50
2022-08-16T09:05:51.997Z,4.20
2022-08-16T09:06:51.926Z,4.10
2022-08-16T09:08:00.587Z,4.10
2022-08-16T09:08:51.952Z,3.90
2022-08-16T09:10:06.437Z,3.80
2022-08-16T09:10:59.264Z,4.80
2022-08-16T09:12:04.025Z,4.20
2022-08-16T09:12:52.288Z,4.00
2022-08-16T09:13:51.833Z,4.10
2022-08-16T09:14:51.862Z,3.60
2022-08-16T09:15:51.825Z,3.90
2022-08-16T09:17:03.699Z,4.30
2022-08-16T09:17:54.687Z,3.70
2022-08-16T09:18:56.858Z,3.80
2022-08-16T09:19:55.691Z,4.50
2022-08-16T09:20:58.827Z,3.90
2022-08-16T09:21:56.235Z,4.30
2022-08-16T09:22:52.601Z,4.10
2022-08-16T09:23:52.949Z,3.80
2022-08-16T09:24:53.998Z,4.20
2022-08-16T09:25:51.710Z,4.10
2022-08-16T09:26:52.580Z,3.70
2022-08-16T09:27:57.770Z,4.20
2022-08-16T09:29:15.751Z,4.00
2022-08-16T09:30:00.378Z,4.40
2022-08-16T09:30:51.660Z,3.60
2022-08-16T09:31:53.338Z,4.10
2022-08-16T09:32:51.596Z,4.20
2022-08-16T09:33:52.155Z,3.80
2022-08-16T09:34:51.575Z,4.40
2022-08-16T09:35:53.519Z,4.20
2022-08-16T09:36:53.914Z,4.10
2022-08-16T09:38:00.539Z,4.10
2022-08-16T09:38:51.523Z,3.90
2022-08-16T09:39:51.549Z,4.20
2022-08-16T09:40:51.662Z,4.20
2022-08-16T09:41:53.112Z,4.10
2022-08-16T09:42:56.332Z,4.00
2022-08-16T09:44:00.251Z,4.10
2022-08-16T09:45:13.037Z,4.20
2022-08-16T09:45:51.449Z,3.80
2022-08-16T09:46:54.805Z,3.90
2022-08-16T09:47:56.616Z,4.30
2022-08-16T09:48:51.769Z,4.00
2022-08-16T09:49:51.374Z,3.90
2022-08-16T09:50:51.363Z,4.10
2022-08-16T09:51:51.350Z,3.80
2022-08-16T09:52:51.495Z,3.60
2022-08-16T09:53:53.864Z,4.10
2022-08-16T09:54:51.327Z,3.80
2022-08-16T09:55:51.288Z,3.80
2022-08-16T09:56:52.658Z,3.60
2022-08-16T09:57:52.992Z,4.00
2022-08-16T09:59:04.167Z,4.00
2022-08-16T09:59:56.123Z,3.30
2022-08-16T10:00:51.243Z,3.50
2022-08-16T10:01:51.625Z,3.50
2022-08-16T10:02:51.243Z,3.50
2022-08-16T10:04:02.640Z,3.60
2022-08-16T10:04:54.430Z,3.60
2022-08-16T10:05:51.197Z,3.80
2022-08-16T10:06:51.145Z,3.80
2022-08-16T10:07:51.500Z,3.70
2022-08-16T10:09:04.537Z,3.20
2022-08-16T10:09:54.574Z,3.70
2022-08-16T10:10:51.101Z,3.90
2022-08-16T10:11:51.111Z,3.10
2022-08-16T10:12:55.465Z,3.50
2022-08-16T10:13:51.046Z,3.50
2022-08-16T10:14:51.086Z,3.50
2022-08-16T10:15:54.841Z,3.50
2022-08-16T10:16:51.021Z,3.30
2022-08-16T10:18:01.561Z,3.60
2022-08-16T10:19:02.352Z,3.40
2022-08-16T10:19:51.012Z,3.40
2022-08-16T10:20:50.953Z,3.40
2022-08-16T10:21:56.211Z,3.60
2022-08-16T10:22:58.851Z,3.60
2022-08-16T10:23:50.930Z,3.40
2022-08-16T10:24:59.635Z,3.70
2022-08-16T10:27:16.309Z,3.40
2022-08-16T10:27:29.931Z,3.70
2022-08-16T10:27:56.877Z,3.60
2022-08-16T10:28:50.862Z,3.10
2022-08-16T10:30:00.503Z,2.90
2022-08-16T10:30:58.972Z,3.30
2022-08-16T10:31:53.650Z,2.90
2022-08-16T10:32:50.836Z,3.10
2022-08-16T10:33:50.798Z,3.10
2022-08-16T10:34:51.374Z,3.20
2022-08-16T10:35:52.460Z,2.80
2022-08-16T10:36:54.110Z,3.50
2022-08-16T10:37:52.396Z,3.10
2022-08-16T10:38:52.212Z,3.10
2022-08-16T10:39:50.838Z,3.10
2022-08-16T10:40:50.745Z,3.50
2022-08-16T10:41:50.698Z,3.60
2022-08-16T10:42:50.674Z,3.70
2022-08-16T10:43:50.673Z,3.50
2022-08-16T10:44:54.824Z,3.60
2022-08-16T10:46:00.028Z,3.60
2022-08-16T10:46:50.675Z,3.40
2022-08-16T10:48:00.746Z,3.40
2022-08-16T10:48:50.606Z,3.30
2022-08-16T10:49:50.590Z,3.30
2022-08-16T10:50:50.567Z,3.70
2022-08-16T10:52:02.482Z,4.60
2022-08-16T10:52:51.847Z,3.30
2022-08-16T10:53:50.546Z,3.70
2022-08-16T10:55:57.599Z,3.30
2022-08-16T10:56:56.162Z,3.80
2022-08-16T10:57:50.670Z,3.70
2022-08-16T10:58:50.461Z,3.50
2022-08-16T10:59:53.227Z,3.40
2022-08-16T11:00:57.215Z,3.50
2022-08-16T11:02:58.460Z,3.60
2022-08-16T11:03:54.514Z,3.30
2022-08-16T11:05:08.191Z,3.70
2022-08-16T11:06:06.246Z,3.80
2022-08-16T11:08:05.411Z,3.70
2022-08-16T11:09:21.011Z,3.70
2022-08-16T11:09:50.398Z,3.70
2022-08-16T11:11:04.806Z,3.60
2022-08-16T11:12:52.800Z,3.60
2022-08-16T11:13:59.056Z,3.70
2022-08-16T11:15:55.425Z,3.50
2022-08-16T11:17:10.986Z,3.30
2022-08-16T11:18:48.935Z,3.60
2022-08-16T11:19:13.222Z,3.50
2022-08-16T11:20:50.575Z,3.60
2022-08-16T11:22:50.155Z,3.50
2022-08-16T11:23:58.257Z,3.20
2022-08-16T11:25:11.995Z,4.20
2022-08-16T11:26:07.579Z,4.30
2022-08-16T11:27:18.725Z,3.60
2022-08-16T11:27:50.356Z,3.20
2022-08-16T11:29:50.117Z,4.30
2022-08-16T11:30:57.273Z,3.60
2022-08-16T11:31:53.989Z,3.50
2022-08-16T11:32:50.174Z,3.60
2022-08-16T11:33:53.441Z,3.70
2022-08-16T11:35:10.217Z,3.70
2022-08-16T11:36:53.736Z,3.40
2022-08-16T11:38:05.945Z,3.80
2022-08-16T11:38:57.126Z,3.80
2022-08-16T11:39:49.981Z,3.60
2022-08-16T11:40:52.091Z,3.80
2022-08-16T11:41:53.173Z,3.30
2022-08-16T11:42:49.922Z,3.10
2022-08-16T11:43:49.883Z,3.40
2022-08-16T11:44:56.061Z,3.20
2022-08-16T11:45:54.266Z,3.50
2022-08-16T11:46:49.862Z,3.20
2022-08-16T11:47:50.065Z,3.00
2022-08-16T11:48:49.839Z,3.20
2022-08-16T11:49:50.652Z,2.70
2022-08-16T11:50:49.799Z,2.80
2022-08-16T11:51:49.812Z,2.90
2022-08-16T11:52:49.762Z,2.80
2022-08-16T11:53:49.775Z,2.80
2022-08-16T11:54:53.830Z,3.10
2022-08-16T11:55:50.510Z,2.90
2022-08-16T11:56:52.558Z,2.80
2022-08-16T11:57:49.868Z,2.90
2022-08-16T11:58:51.767Z,3.20
2022-08-16T11:59:49.708Z,3.20
2022-08-16T12:00:51.314Z,3.00
2022-08-16T12:01:55.518Z,3.20
2022-08-16T12:02:49.646Z,3.10
2022-08-16T12:03:49.728Z,3.20
2022-08-16T12:04:52.055Z,3.00
2022-08-16T12:05:51.754Z,3.30
2022-08-16T12:06:49.958Z,3.30
2022-08-16T12:07:49.728Z,3.00
2022-08-16T12:08:49.562Z,2.90
2022-08-16T12:09:49.650Z,3.20
2022-08-16T12:10:49.550Z,2.90
2022-08-16T12:11:52.393Z,2.90
2022-08-16T12:12:49.535Z,3.20
2022-08-16T12:13:49.495Z,3.00
2022-08-16T12:14:52.139Z,2.90
2022-08-16T12:15:49.472Z,3.00
2022-08-16T12:16:55.707Z,2.80
2022-08-16T12:17:49.712Z,2.90
2022-08-16T12:19:49.464Z,3.10
2022-08-16T12:20:49.441Z,3.10
2022-08-16T12:21:58.859Z,3.00
2022-08-16T12:22:49.479Z,3.20
2022-08-16T12:23:49.443Z,3.00
2022-08-16T12:24:51.870Z,2.90
2022-08-16T12:25:49.330Z,3.00
2022-08-16T12:26:49.324Z,3.00
2022-08-16T12:27:49.903Z,2.70
2022-08-16T12:28:55.183Z,2.60
2022-08-16T12:29:49.306Z,2.60
2022-08-16T12:30:49.307Z,2.60
2022-08-16T12:32:00.450Z,3.00
2022-08-16T12:32:52.978Z,3.10
2022-08-16T12:33:49.253Z,2.70
2022-08-16T12:34:52.667Z,2.70
2022-08-16T12:35:49.252Z,3.00
2022-08-16T12:36:49.214Z,2.70
2022-08-16T12:37:49.217Z,2.40
2022-08-16T12:38:49.272Z,2.50
2022-08-16T12:39:51.273Z,2.70
2022-08-16T12:40:49.175Z,2.60
2022-08-16T12:41:49.115Z,2.30
2022-08-16T12:42:52.437Z,2.20
2022-08-16T12:43:49.114Z,2.50
2022-08-16T12:44:49.100Z,2.40
2022-08-16T12:45:49.117Z,2.30
2022-08-16T12:46:49.089Z,2.60
2022-08-16T12:47:49.179Z,2.20
2022-08-16T12:48:49.052Z,2.30
2022-08-16T12:49:49.011Z,2.40
2022-08-16T12:50:49.396Z,2.20
2022-08-16T12:51:58.580Z,2.10
2022-08-16T12:52:52.890Z,2.00
2022-08-16T12:53:49.705Z,2.00
2022-08-16T12:54:55.052Z,2.30
2022-08-16T12:55:48.953Z,2.40
2022-08-16T12:56:50.444Z,2.60
2022-08-16T12:57:58.520Z,2.60
2022-08-16T12:58:51.538Z,2.30
2022-08-16T12:59:48.889Z,2.70
2022-08-16T13:00:48.919Z,2.70
2022-08-16T13:01:50.231Z,2.50
2022-08-16T13:02:48.987Z,2.40
2022-08-16T13:03:48.847Z,2.10
2022-08-16T13:04:48.810Z,2.50
2022-08-16T13:05:55.150Z,2.50
2022-08-16T13:06:48.963Z,2.20
2022-08-16T13:07:51.382Z,2.40
2022-08-16T13:08:49.562Z,2.60
2022-08-16T13:09:48.755Z,2.20
2022-08-16T13:10:48.755Z,2.30
2022-08-16T13:11:52.154Z,2.20
2022-08-16T13:12:48.745Z,2.40
2022-08-16T13:13:54.834Z,2.30
2022-08-16T13:14:50.094Z,2.20
2022-08-16T13:15:55.438Z,2.40
2022-08-16T13:16:48.681Z,2.20
2022-08-16T13:17:50.248Z,2.30
2022-08-16T13:18:52.647Z,2.40
2022-08-16T13:20:07.717Z,2.60
2022-08-16T13:20:48.627Z,2.20
2022-08-16T13:21:49.977Z,2.40
2022-08-16T13:22:48.708Z,2.20
2022-08-16T13:23:48.596Z,2.40
2022-08-16T13:24:48.575Z,2.40
2022-08-16T13:25:49.616Z,2.10
2022-08-16T13:26:48.537Z,2.50
2022-08-16T13:28:01.652Z,2.20